createdAt,value
2023-06-07T00:01:09.161Z,16.61
2023-06-07T00:03:49.797Z,16.57
2023-06-07T00:06:30.937Z,16.53
2023-06-07T00:09:10.799Z,16.50
2023-06-07T00:11:50.118Z,16.49
2023-06-07T00:14:34.528Z,16.49
2023-06-07T00:17:13.925Z,16.49
2023-06-07T00:19:55.050Z,16.48
2023-06-07T00:22:36.418Z,16.46
2023-06-07T00:25:16.585Z,16.46
2023-06-07T00:27:55.960Z,16.44
2023-06-07T00:30:40.548Z,16.41
2023-06-07T00:33:19.898Z,16.41
2023-06-07T00:35:59.184Z,16.40
2023-06-07T00:38:38.491Z,16.36
2023-06-07T00:41:18.037Z,16.35
2023-06-07T00:43:57.655Z,16.35
2023-06-07T00:46:42.224Z,16.36
2023-06-07T00:49:23.185Z,16.38
2023-06-07T00:52:02.771Z,16.41
2023-06-07T00:54:42.360Z,16.44
2023-06-07T00:57:23.358Z,16.47
2023-06-07T01:00:06.316Z,16.49
2023-06-07T01:02:54.244Z,16.49
2023-06-07T01:05:34.125Z,16.47
2023-06-07T01:08:13.936Z,16.43
2023-06-07T01:10:54.478Z,16.38
2023-06-07T01:13:34.551Z,16.30
2023-06-07T01:16:16.088Z,16.24
2023-06-07T01:19:00.749Z,16.21
2023-06-07T01:21:42.051Z,16.18
2023-06-07T01:24:26.686Z,16.16
2023-06-07T01:27:06.707Z,16.14
2023-06-07T01:29:47.535Z,16.13
2023-06-07T01:32:27.592Z,16.11
2023-06-07T01:35:07.990Z,16.10
2023-06-07T01:37:49.207Z,16.08
2023-06-07T01:40:35.908Z,16.06
2023-06-07T01:43:16.513Z,16.04
2023-06-07T01:45:57.000Z,16.00
2023-06-07T01:48:36.361Z,15.96
2023-06-07T01:51:15.738Z,15.89
2023-06-07T01:53:57.140Z,15.84
2023-06-07T01:56:52.088Z,15.80
2023-06-07T01:59:41.542Z,15.73
2023-06-07T02:02:28.714Z,15.65
2023-06-07T02:05:12.200Z,15.58
2023-06-07T02:07:56.863Z,15.53
2023-06-07T02:10:40.655Z,15.47
2023-06-07T02:13:28.593Z,15.41
2023-06-07T02:16:08.180Z,15.37
2023-06-07T02:18:47.934Z,15.34
2023-06-07T02:21:27.272Z,15.30
2023-06-07T02:24:08.101Z,15.26
2023-06-07T02:26:47.833Z,15.25
2023-06-07T02:29:32.223Z,15.22
2023-06-07T02:32:12.451Z,15.19
2023-06-07T02:34:51.924Z,15.18
2023-06-07T02:37:31.265Z,15.16
2023-06-07T02:40:13.142Z,15.14
2023-06-07T02:42:53.332Z,15.12
2023-06-07T02:45:38.023Z,15.08
2023-06-07T02:48:18.723Z,15.05
2023-06-07T02:50:58.060Z,15.02
2023-06-07T02:53:37.453Z,14.97
2023-06-07T02:56:17.189Z,14.91
2023-06-07T02:58:56.850Z,14.86
2023-06-07T03:01:41.642Z,14.82
2023-06-07T03:04:20.997Z,14.77
2023-06-07T03:07:01.185Z,14.73
2023-06-07T03:09:40.678Z,14.70
2023-06-07T03:12:20.026Z,14.68
2023-06-07T03:14:59.339Z,14.64
2023-06-07T03:17:44.273Z,14.58
2023-06-07T03:20:23.993Z,14.52
2023-06-07T03:23:03.386Z,14.48
2023-06-07T03:25:43.072Z,14.46
2023-06-07T03:28:25.059Z,14.44
2023-06-07T03:31:04.469Z,14.40
2023-06-07T03:33:48.942Z,14.37
2023-06-07T03:36:31.121Z,14.32
2023-06-07T03:39:10.463Z,14.30
2023-06-07T03:41:49.831Z,14.29
2023-06-07T03:44:29.173Z,14.29
2023-06-07T03:47:08.554Z,14.30
2023-06-07T03:49:52.954Z,14.32
2023-06-07T03:52:32.517Z,14.36
2023-06-07T03:55:13.958Z,14.40
2023-06-07T03:57:57.152Z,14.46
2023-06-07T04:00:36.467Z,14.52
2023-06-07T04:03:15.960Z,14.57
2023-06-07T04:06:00.382Z,14.61
2023-06-07T04:08:39.681Z,14.67
2023-06-07T04:11:19.134Z,14.73
2023-06-07T04:13:58.755Z,14.79
2023-06-07T04:16:38.166Z,14.86
2023-06-07T04:19:17.567Z,14.90
2023-06-07T04:22:02.042Z,14.93
2023-06-07T04:24:41.617Z,14.98
2023-06-07T04:27:20.942Z,15.03
2023-06-07T04:30:04.296Z,15.08
2023-06-07T04:32:43.907Z,15.13
2023-06-07T04:35:23.590Z,15.18
2023-06-07T04:38:10.417Z,15.22
2023-06-07T04:40:51.519Z,15.28
2023-06-07T04:43:30.893Z,15.35
2023-06-07T04:46:11.576Z,15.41
2023-06-07T04:48:50.944Z,15.47
2023-06-07T04:51:33.645Z,15.54
2023-06-07T04:54:19.007Z,15.59
2023-06-07T04:56:59.732Z,15.65
2023-06-07T04:59:45.188Z,15.71
2023-06-07T05:02:25.012Z,15.78
2023-06-07T05:05:04.563Z,15.82
2023-06-07T05:07:43.904Z,15.86
2023-06-07T05:10:28.445Z,15.87
2023-06-07T05:13:07.736Z,15.89
2023-06-07T05:15:47.119Z,15.94
2023-06-07T05:18:26.985Z,15.99
2023-06-07T05:21:06.328Z,16.04
2023-06-07T05:23:45.683Z,16.07
2023-06-07T05:26:30.116Z,16.13
2023-06-07T05:29:09.414Z,16.19
2023-06-07T05:31:49.127Z,16.26
2023-06-07T05:34:28.458Z,16.32
2023-06-07T05:37:07.758Z,16.36
2023-06-07T05:39:48.214Z,16.44
2023-06-07T05:42:32.718Z,16.50
2023-06-07T05:45:13.977Z,16.57
2023-06-07T05:47:53.299Z,16.65
2023-06-07T05:50:32.576Z,16.71
2023-06-07T05:53:11.895Z,16.77
2023-06-07T05:55:51.712Z,16.86
2023-06-07T05:58:36.139Z,16.95
2023-06-07T06:01:15.570Z,17.03
2023-06-07T06:03:54.956Z,17.10
2023-06-07T06:06:34.245Z,17.17
2023-06-07T06:09:13.811Z,17.24
2023-06-07T06:11:53.673Z,17.30
2023-06-07T06:14:38.067Z,17.37
2023-06-07T06:17:17.740Z,17.43
2023-06-07T06:19:58.033Z,17.51
2023-06-07T06:22:37.298Z,17.60
2023-06-07T06:25:16.961Z,17.68
2023-06-07T06:27:56.698Z,17.77
2023-06-07T06:30:41.182Z,17.82
2023-06-07T06:33:20.478Z,17.88
2023-06-07T06:35:59.930Z,17.91
2023-06-07T06:38:39.207Z,17.91
2023-06-07T06:41:18.840Z,17.93
2023-06-07T06:43:58.197Z,17.97
2023-06-07T06:46:43.457Z,18.01
2023-06-07T06:49:23.013Z,18.05
2023-06-07T06:52:02.408Z,18.10
2023-06-07T06:54:41.776Z,18.17
2023-06-07T06:57:21.138Z,18.25
2023-06-07T07:00:00.627Z,18.38
2023-06-07T07:02:45.955Z,18.49
2023-06-07T07:05:27.290Z,18.60
2023-06-07T07:08:10.403Z,18.74
2023-06-07T07:10:50.313Z,18.85
2023-06-07T07:13:29.617Z,18.98
2023-06-07T07:16:08.928Z,19.10
2023-06-07T07:18:53.430Z,19.20
2023-06-07T07:21:35.305Z,19.37
2023-06-07T07:24:15.893Z,19.50
2023-06-07T07:26:55.481Z,19.62
2023-06-07T07:29:34.796Z,19.76
2023-06-07T07:32:15.348Z,19.86
2023-06-07T07:34:59.849Z,20.06
2023-06-07T07:37:40.713Z,20.26
2023-06-07T07:40:20.465Z,20.42
2023-06-07T07:42:59.928Z,20.51
2023-06-07T07:45:39.258Z,20.59
2023-06-07T07:48:18.590Z,20.70
2023-06-07T07:51:04.379Z,20.82
2023-06-07T07:53:44.393Z,20.94
2023-06-07T07:56:23.708Z,21.03
2023-06-07T07:59:02.996Z,21.11
2023-06-07T08:01:42.306Z,21.20
2023-06-07T08:04:21.644Z,21.27
2023-06-07T08:07:06.002Z,21.35
2023-06-07T08:09:45.295Z,21.42
2023-06-07T08:12:24.638Z,21.47
2023-06-07T08:15:03.969Z,21.54
2023-06-07T08:17:43.383Z,21.61
2023-06-07T08:20:22.874Z,21.69
2023-06-07T08:23:07.561Z,21.77
2023-06-07T08:25:46.927Z,21.83
2023-06-07T08:28:26.387Z,21.86
2023-06-07T08:31:06.067Z,21.89
2023-06-07T08:33:45.563Z,21.94
2023-06-07T08:36:25.375Z,22.03
2023-06-07T08:39:10.320Z,22.11
2023-06-07T08:41:49.682Z,22.20
2023-06-07T08:44:29.078Z,22.28
2023-06-07T08:47:09.823Z,22.35
2023-06-07T08:49:52.138Z,22.42
2023-06-07T08:52:32.113Z,22.48
2023-06-07T08:55:18.799Z,22.53
2023-06-07T08:57:58.617Z,22.57
2023-06-07T09:00:38.503Z,22.58
2023-06-07T09:03:20.227Z,22.59
2023-06-07T09:06:03.882Z,22.60
2023-06-07T09:08:43.628Z,22.61
2023-06-07T09:11:28.844Z,22.64
2023-06-07T09:14:09.080Z,22.67
2023-06-07T09:17:07.288Z,22.73
2023-06-07T09:19:48.639Z,22.81
2023-06-07T09:22:32.398Z,22.87
2023-06-07T09:25:15.423Z,22.91
2023-06-07T09:28:03.760Z,22.93
2023-06-07T09:30:43.111Z,22.97
2023-06-07T09:33:36.089Z,23.02
2023-06-07T09:36:18.051Z,23.12
2023-06-07T09:38:58.470Z,23.30
2023-06-07T09:41:39.123Z,23.48
2023-06-07T09:44:29.206Z,23.65
2023-06-07T09:47:08.684Z,23.88
2023-06-07T09:49:48.129Z,24.21
2023-06-07T09:52:30.357Z,24.43
2023-06-07T09:55:10.938Z,24.60
2023-06-07T09:57:50.329Z,24.98
2023-06-07T10:00:34.866Z,25.33
2023-06-07T10:03:14.884Z,25.70
2023-06-07T10:05:54.423Z,25.79
2023-06-07T10:08:33.940Z,25.79
2023-06-07T10:11:14.544Z,25.80
2023-06-07T10:13:55.722Z,25.80
2023-06-07T10:16:44.097Z,25.84
2023-06-07T10:19:29.374Z,26.01
2023-06-07T10:22:10.709Z,26.14
2023-06-07T10:25:01.958Z,26.27
2023-06-07T10:27:58.191Z,26.48
2023-06-07T10:30:40.948Z,26.59
2023-06-07T10:33:26.614Z,26.43
2023-06-07T10:36:06.553Z,26.26
2023-06-07T10:38:46.566Z,26.12
2023-06-07T10:41:26.592Z,26.03
2023-06-07T10:44:07.928Z,25.96
2023-06-07T10:46:49.739Z,26.05
2023-06-07T10:49:50.791Z,26.44
2023-06-07T10:52:31.016Z,26.56
2023-06-07T10:55:33.864Z,26.70
2023-06-07T10:58:34.038Z,26.63
2023-06-07T11:01:32.871Z,26.51
2023-06-07T11:04:12.403Z,26.46
2023-06-07T11:07:22.297Z,26.40
2023-06-07T11:10:32.139Z,26.28
2023-06-07T11:13:16.483Z,26.23
2023-06-07T11:15:55.853Z,26.30
2023-06-07T11:19:02.745Z,26.82
2023-06-07T11:22:11.898Z,27.11
2023-06-07T11:24:56.333Z,27.23
2023-06-07T11:27:35.739Z,27.17
2023-06-07T11:30:20.963Z,26.99
2023-06-07T11:33:00.305Z,26.83
2023-06-07T11:35:39.671Z,26.70
2023-06-07T11:38:19.175Z,26.60
2023-06-07T11:40:58.718Z,26.53
2023-06-07T11:43:39.262Z,26.46
2023-06-07T11:46:25.052Z,26.42
2023-06-07T11:49:04.493Z,26.36
2023-06-07T11:51:43.998Z,26.45
2023-06-07T11:54:24.558Z,26.74
2023-06-07T11:57:04.598Z,26.76
2023-06-07T11:59:44.386Z,27.22
2023-06-07T12:02:29.927Z,27.79
2023-06-07T12:05:11.686Z,27.99
2023-06-07T12:07:50.987Z,28.16
2023-06-07T12:10:34.826Z,28.25
2023-06-07T12:13:21.027Z,28.46
2023-06-07T12:16:03.094Z,28.40
2023-06-07T12:18:49.533Z,28.40
2023-06-07T12:21:32.104Z,28.42
2023-06-07T12:24:12.013Z,28.66
2023-06-07T12:26:51.480Z,28.87
2023-06-07T12:29:36.340Z,28.99
2023-06-07T12:32:20.352Z,29.10
2023-06-07T12:35:08.911Z,29.22
2023-06-07T12:37:48.448Z,29.35
2023-06-07T12:40:27.722Z,29.48
2023-06-07T12:43:07.490Z,29.58
2023-06-07T12:45:46.821Z,29.75
2023-06-07T12:48:26.175Z,29.97
2023-06-07T12:51:10.886Z,29.97
2023-06-07T12:53:50.648Z,29.46
2023-06-07T12:56:30.363Z,29.32
2023-06-07T12:59:09.925Z,29.32
2023-06-07T13:01:49.266Z,29.15
2023-06-07T13:04:31.037Z,29.52
2023-06-07T13:07:15.829Z,29.94
2023-06-07T13:09:55.114Z,30.25
2023-06-07T13:12:35.065Z,30.35
2023-06-07T13:15:17.073Z,29.57
2023-06-07T13:17:56.566Z,29.18
2023-06-07T13:20:36.029Z,29.49
2023-06-07T13:23:20.537Z,29.85
2023-06-07T13:25:59.980Z,30.04
2023-06-07T13:28:39.382Z,30.20
2023-06-07T13:31:19.014Z,30.35
2023-06-07T13:33:58.378Z,30.48
2023-06-07T13:36:39.063Z,30.58
2023-06-07T13:39:23.445Z,30.80
2023-06-07T13:42:02.766Z,31.06
2023-06-07T13:44:42.127Z,31.30
2023-06-07T13:47:21.855Z,31.50
2023-06-07T13:50:01.446Z,31.66
2023-06-07T13:52:40.932Z,31.82
2023-06-07T13:55:25.557Z,31.94
2023-06-07T13:58:04.935Z,32.07
2023-06-07T14:00:44.277Z,32.14
2023-06-07T14:03:24.283Z,32.31
2023-06-07T14:06:03.856Z,32.45
2023-06-07T14:08:43.302Z,32.62
2023-06-07T14:11:28.548Z,32.77
2023-06-07T14:14:07.886Z,32.83
2023-06-07T14:16:47.730Z,32.88
2023-06-07T14:19:27.212Z,32.75
2023-06-07T14:22:06.935Z,32.20
2023-06-07T14:24:46.186Z,31.62
2023-06-07T14:27:31.052Z,31.04
2023-06-07T14:30:10.652Z,30.69
2023-06-07T14:32:50.117Z,30.76
2023-06-07T14:35:29.445Z,31.14
2023-06-07T14:38:08.809Z,31.43
2023-06-07T14:40:48.269Z,31.64
2023-06-07T14:43:32.885Z,31.78
2023-06-07T14:46:12.543Z,31.91
2023-06-07T14:48:52.833Z,32.05
2023-06-07T14:51:32.433Z,32.21
2023-06-07T14:54:11.856Z,32.25
2023-06-07T14:56:51.229Z,31.91
2023-06-07T14:59:36.960Z,31.73
2023-06-07T15:02:17.633Z,31.75
2023-06-07T15:04:56.905Z,32.08
2023-06-07T15:07:36.255Z,32.41
2023-06-07T15:10:16.397Z,32.70
2023-06-07T15:12:56.994Z,32.76
2023-06-07T15:15:41.434Z,32.59
2023-06-07T15:18:22.899Z,32.38
2023-06-07T15:21:02.350Z,31.56
2023-06-07T15:23:41.832Z,31.06
2023-06-07T15:26:21.143Z,30.87
2023-06-07T15:29:00.490Z,31.09
2023-06-07T15:31:45.001Z,31.37
2023-06-07T15:34:27.774Z,31.64
2023-06-07T15:37:08.390Z,31.84
2023-06-07T15:39:47.729Z,32.02
2023-06-07T15:42:27.051Z,32.12
2023-06-07T15:45:06.426Z,32.22
2023-06-07T15:48:06.428Z,32.29
2023-06-07T15:50:46.688Z,32.37
2023-06-07T15:53:26.363Z,32.43
2023-06-07T15:56:05.669Z,32.50
2023-06-07T15:58:44.958Z,32.59
2023-06-07T16:01:24.664Z,32.69
2023-06-07T16:04:09.179Z,32.76
2023-06-07T16:06:49.494Z,32.80
2023-06-07T16:09:29.293Z,32.82
2023-06-07T16:12:09.011Z,32.85
2023-06-07T16:14:48.319Z,32.84
2023-06-07T16:17:28.175Z,32.84
2023-06-07T16:20:14.334Z,32.88
2023-06-07T16:22:53.925Z,32.91
2023-06-07T16:25:33.274Z,32.91
2023-06-07T16:28:12.882Z,32.91
2023-06-07T16:30:52.742Z,32.95
2023-06-07T16:33:32.131Z,32.92
2023-06-07T16:36:17.050Z,32.88
2023-06-07T16:38:57.354Z,32.89
2023-06-07T16:41:39.924Z,32.91
2023-06-07T16:44:20.438Z,32.86
2023-06-07T16:46:59.924Z,32.79
2023-06-07T16:49:40.126Z,32.75
2023-06-07T16:52:25.179Z,32.76
2023-06-07T16:55:05.395Z,32.76
2023-06-07T16:57:45.076Z,32.74
2023-06-07T17:00:25.361Z,32.64
2023-06-07T17:03:04.769Z,32.32
2023-06-07T17:05:44.079Z,31.85
2023-06-07T17:08:28.767Z,31.39
2023-06-07T17:11:10.226Z,31.11
2023-06-07T17:13:50.225Z,30.89
2023-06-07T17:16:29.694Z,30.86
2023-06-07T17:19:09.150Z,30.90
2023-06-07T17:21:48.435Z,30.96
2023-06-07T17:24:32.801Z,30.96
2023-06-07T17:27:12.953Z,30.90
2023-06-07T17:29:52.512Z,30.88
2023-06-07T17:32:31.868Z,30.80
2023-06-07T17:35:11.971Z,30.74
2023-06-07T17:37:51.297Z,30.54
2023-06-07T17:40:35.704Z,30.31
2023-06-07T17:43:14.996Z,30.13
2023-06-07T17:45:55.042Z,29.96
2023-06-07T17:48:34.401Z,29.76
2023-06-07T17:51:14.089Z,29.55
2023-06-07T17:53:53.369Z,29.29
2023-06-07T17:56:37.750Z,29.00
2023-06-07T17:59:17.055Z,28.77
2023-06-07T18:01:56.378Z,28.56
2023-06-07T18:04:35.790Z,28.40
2023-06-07T18:07:15.088Z,28.26
2023-06-07T18:09:54.410Z,28.05
2023-06-07T18:12:41.185Z,27.90
2023-06-07T18:15:20.541Z,27.76
2023-06-07T18:18:00.049Z,27.63
2023-06-07T18:20:39.495Z,27.51
2023-06-07T18:23:19.915Z,27.37
2023-06-07T18:26:02.369Z,27.24
2023-06-07T18:28:46.748Z,27.07
2023-06-07T18:31:26.117Z,26.87
2023-06-07T18:34:05.930Z,26.68
2023-06-07T18:36:45.300Z,26.50
2023-06-07T18:39:25.524Z,26.30
2023-06-07T18:42:05.072Z,26.18
2023-06-07T18:44:49.441Z,26.01
2023-06-07T18:47:28.810Z,25.91
2023-06-07T18:50:08.814Z,25.84
2023-06-07T18:52:48.314Z,25.77
2023-06-07T18:55:27.732Z,25.71
2023-06-07T18:58:07.473Z,25.59
2023-06-07T19:00:51.954Z,25.49
2023-06-07T19:03:31.463Z,25.31
2023-06-07T19:06:12.055Z,25.17
2023-06-07T19:08:51.393Z,25.04
2023-06-07T19:11:30.707Z,24.96
2023-06-07T19:14:10.042Z,24.89
2023-06-07T19:16:54.515Z,24.83
2023-06-07T19:19:33.942Z,24.79
2023-06-07T19:22:14.698Z,24.74
2023-06-07T19:24:54.000Z,24.68
2023-06-07T19:27:33.268Z,24.60
2023-06-07T19:30:14.176Z,24.54
2023-06-07T19:32:58.615Z,24.49
2023-06-07T19:35:38.001Z,24.42
2023-06-07T19:38:17.460Z,24.38
2023-06-07T19:40:56.714Z,24.30
2023-06-07T19:43:36.089Z,24.21
2023-06-07T19:46:15.410Z,24.10
2023-06-07T19:48:59.789Z,24.03
2023-06-07T19:51:40.354Z,23.97
2023-06-07T19:54:19.719Z,23.92
2023-06-07T19:56:59.133Z,23.90
2023-06-07T19:59:41.880Z,23.88
2023-06-07T20:02:21.357Z,23.87
2023-06-07T20:05:06.154Z,23.84
2023-06-07T20:07:45.462Z,23.80
2023-06-07T20:10:25.198Z,23.76
2023-06-07T20:13:07.907Z,23.68
2023-06-07T20:15:47.352Z,23.59
2023-06-07T20:18:26.668Z,23.48
2023-06-07T20:21:11.289Z,23.39
2023-06-07T20:23:50.686Z,23.28
2023-06-07T20:26:29.989Z,23.19
2023-06-07T20:29:09.293Z,23.11
2023-06-07T20:31:50.155Z,23.05
2023-06-07T20:34:29.612Z,22.96
2023-06-07T20:37:14.069Z,22.86
2023-06-07T20:39:53.408Z,22.77
2023-06-07T20:42:32.693Z,22.69
2023-06-07T20:45:14.728Z,22.61
2023-06-07T20:47:54.010Z,22.50
2023-06-07T20:50:33.418Z,22.36
2023-06-07T20:53:17.833Z,22.21
2023-06-07T20:55:57.196Z,22.07
2023-06-07T20:58:36.582Z,21.96
2023-06-07T21:01:16.801Z,21.88
2023-06-07T21:03:57.815Z,21.78
2023-06-07T21:06:38.117Z,21.70
2023-06-07T21:09:22.570Z,21.63
2023-06-07T21:12:02.220Z,21.58
2023-06-07T21:14:41.837Z,21.54
2023-06-07T21:17:21.152Z,21.52
2023-06-07T21:20:00.469Z,21.49
2023-06-07T21:22:39.757Z,21.45
2023-06-07T21:25:24.291Z,21.42
2023-06-07T21:28:03.874Z,21.37
2023-06-07T21:30:43.352Z,21.31
2023-06-07T21:33:26.380Z,21.26
2023-06-07T21:36:05.669Z,21.21
2023-06-07T21:38:45.009Z,21.18
2023-06-07T21:41:31.193Z,21.13
2023-06-07T21:44:10.627Z,21.06
2023-06-07T21:46:49.913Z,20.97
2023-06-07T21:49:29.268Z,20.91
2023-06-07T21:52:08.615Z,20.89
2023-06-07T21:54:52.582Z,20.87
2023-06-07T21:57:36.965Z,20.84
2023-06-07T22:00:17.501Z,20.81
2023-06-07T22:02:57.005Z,20.75
2023-06-07T22:05:36.377Z,20.69
2023-06-07T22:08:16.722Z,20.60
2023-06-07T22:10:56.021Z,20.51
2023-06-07T22:13:41.851Z,20.42
2023-06-07T22:16:21.171Z,20.33
2023-06-07T22:19:02.034Z,20.26
2023-06-07T22:21:41.369Z,20.21
2023-06-07T22:24:22.005Z,20.16
2023-06-07T22:27:01.632Z,20.08
2023-06-07T22:29:48.389Z,20.03
2023-06-07T22:32:30.986Z,19.98
2023-06-07T22:35:11.227Z,19.95
2023-06-07T22:37:51.377Z,19.94
2023-06-07T22:40:30.684Z,19.92
2023-06-07T22:43:10.038Z,19.88
2023-06-07T22:45:54.631Z,19.83
2023-06-07T22:48:34.380Z,19.78
2023-06-07T22:51:13.718Z,19.72
2023-06-07T22:53:53.102Z,19.67
2023-06-07T22:56:32.525Z,19.63
2023-06-07T22:59:12.289Z,19.59
2023-06-07T23:01:57.455Z,19.55
2023-06-07T23:07:24.867Z,19.44
2023-06-07T23:10:04.490Z,19.41
2023-06-07T23:12:45.105Z,19.38
2023-06-07T23:15:25.702Z,19.35
2023-06-07T23:18:10.325Z,19.33
2023-06-07T23:20:50.913Z,19.30
2023-06-07T23:23:31.623Z,19.25
2023-06-07T23:26:11.653Z,19.19
2023-06-07T23:28:50.992Z,19.13
2023-06-07T23:31:30.374Z,19.10
2023-06-07T23:34:14.782Z,19.07
2023-06-07T23:36:54.079Z,19.05
2023-06-07T23:39:33.553Z,19.02
2023-06-07T23:42:13.257Z,18.96
2023-06-07T23:44:53.341Z,18.89
2023-06-07T23:47:32.744Z,18.85
2023-06-07T23:50:17.839Z,18.81
2023-06-07T23:52:57.125Z,18.77
2023-06-07T23:55:36.464Z,18.75
2023-06-07T23:58:15.820Z,18.74
